Jackson, MS

10:30 AM CDT on May 03, 2015 (GMT -0500)
Brinkly | | Change Station
CLOSE
Current Station
Personal Weather Station
Location: Jackson, MS
Elevation: 344 ft
Nearby Weather Stations
Active Advisory: Flood Warning

Elev 344 ft 32.35 °N, 90.20 °W | Updated 20 minutes ago

Clear
Clear
76.3 °F
Feels Like 78 °F
N
2.2
Wind Variable Wind from South

Today
High -- | Low -- °F
--% Chance of Precip.
Yesterday
High -- | Low -- °F
Precip. -- in
6:12 AM 7:43 PM
Full, 100% visible
Pressure 30.11 in
Visibility 10.0 miles
Clouds Mostly Cloudy 7500 ft
Heat Index 78 °F
Dew Point 58 °F
Humidity 54%
Rainfall 0.00 in
Snow Depth Not available.
UV 3 out of 12
Pollen 7.50 out of 12
Air Quality Not available.
Flu Activity No Activity
METAR KHKS 031453Z 18007KT 10SM BKN075 23/16 A3013 RMK AO2 SLP194 T02330156 51009

More Conditions Fewer Conditions

Pressure 30.11 in
Visibility 10.0 miles
Clouds Mostly Cloudy 7500 ft
Heat Index 78 °F
Dew Point 58 °F
Humidity 54%
Rainfall 0.00 in
Snow Depth Not available.
UV 3 out of 12
Pollen 7.50 out of 12
Air Quality Not available.
Flu Activity No Activity
METAR KHKS 031453Z 18007KT 10SM BKN075 23/16 A3013 RMK AO2 SLP194 T02330156 51009

More Conditions Fewer Conditions

Nepal has a long way to go to dig out and rebuild from a devastating earthquake. We have teamed up with several charities and organizations to make contributing to the relief effort as easy as possible.
How you can help: Portlight Strategies | Red Cross

10-Day Weather Forecast

Almanac

Astronomy

May. 03, 2015 Rise Set
Actual Time
Civil Twilight
Nautical Twilight
Astronomical Twilight
Moon
Length of Visible Light
Length of Day
Tomorrow will be .
, % of the Moon is Illuminated

Today's Extremes

State Highs State Lows

Community

WunderPhotos

Upload Photos

1,818,255 photos uploaded!

WunderBlogs® & News

Nearby

Air Quality

  Air Quality AQ Index Pollutant
Not available.

Snow Depth

Station Depth Elevation

Earthquake Activity

City Distance Mag. Time & Date
Minimum magnitude displayed is 2.5.

Coastal Water Temperatures

Place Temperature

Stations

Nearby Weather Stations

Station Location Temp. Windchill Dew Point Humidity Wind Precip. Elev Updated Type
                   
Flood Warning
Statement as of 7:45 PM CDT on May 02, 2015


The Flood Warning continues for
the Big Black River near Bovina
* until further notice.
* At 7:15 PM Saturday the stage was 28.7 feet.
* Minor flooding is occurring and minor flooding is forecast.
* Flood stage is 28.0 feet.
* Forecast... the river will continue falling.
* Impact... at 28.0 feet... low-lying agricultural land near the river
begins to flood.


              Flood observed forecast 7 am crest
location stg stg day time sun Mon Tue crest time date

Lower Big Black River
Bovina 28 28.7 Sat 07 PM 28.6 28.5 28.3 falling




Lat... Lon 3217 9093 3224 9078 3256 9064 3245 9052
      3218 9065 3204 9102